createdAt,value
2023-02-12T00:00:07.972Z,17.05
2023-02-12T00:02:42.199Z,22.55
2023-02-12T00:05:09.457Z,26.05
2023-02-12T00:07:36.523Z,18.70
2023-02-12T00:10:03.732Z,19.60
2023-02-12T00:12:30.957Z,20.10
2023-02-12T00:14:58.079Z,19.35
2023-02-12T00:17:25.116Z,26.55
2023-02-12T00:19:52.184Z,23.00
2023-02-12T00:22:19.286Z,16.90
2023-02-12T00:24:46.372Z,23.20
2023-02-12T00:27:13.489Z,18.80
2023-02-12T00:29:40.615Z,31.73
2023-02-12T00:32:07.793Z,21.15
2023-02-12T00:34:35.017Z,22.33
2023-02-12T00:37:02.221Z,23.75
2023-02-12T00:39:29.357Z,23.38
2023-02-12T00:41:56.498Z,20.88
2023-02-12T00:44:23.639Z,23.85
2023-02-12T00:46:51.910Z,23.58
2023-02-12T00:49:20.323Z,22.42
2023-02-12T00:51:47.433Z,19.83
2023-02-12T00:54:14.545Z,20.77
2023-02-12T00:56:41.713Z,26.40
2023-02-12T00:59:08.956Z,24.25
2023-02-12T01:01:36.242Z,26.73
2023-02-12T01:04:04.069Z,21.33
2023-02-12T01:06:31.149Z,23.55
2023-02-12T01:08:58.291Z,23.13
2023-02-12T01:11:25.379Z,24.50
2023-02-12T01:13:52.924Z,23.13
2023-02-12T01:16:22.239Z,23.05
2023-02-12T01:18:51.071Z,21.25
2023-02-12T01:21:20.611Z,22.02
2023-02-12T01:23:48.113Z,23.83
2023-02-12T01:26:15.818Z,24.00
2023-02-12T01:28:43.567Z,27.17
2023-02-12T01:31:17.086Z,24.88
2023-02-12T01:33:44.648Z,25.45
2023-02-12T01:36:11.901Z,23.13
2023-02-12T01:38:39.065Z,29.80
2023-02-12T01:41:11.602Z,24.20
2023-02-12T01:43:39.343Z,24.90
2023-02-12T01:46:07.598Z,26.70
2023-02-12T01:48:37.234Z,22.50
2023-02-12T01:51:05.011Z,31.45
2023-02-12T01:53:41.118Z,32.85
2023-02-12T01:56:09.526Z,26.30
2023-02-12T01:58:38.593Z,29.98
2023-02-12T02:01:07.058Z,32.13
2023-02-12T02:03:36.694Z,33.65
2023-02-12T02:06:15.020Z,28.63
2023-02-12T02:08:42.898Z,31.95
2023-02-12T02:11:39.906Z,35.83
2023-02-12T02:14:25.688Z,27.17
2023-02-12T02:17:07.901Z,33.80
2023-02-12T02:19:53.760Z,31.25
2023-02-12T02:22:29.780Z,33.17
2023-02-12T02:25:15.854Z,31.55
2023-02-12T02:27:51.869Z,32.97
2023-02-12T02:30:26.973Z,34.22
2023-02-12T02:33:08.961Z,34.00
2023-02-12T02:35:39.242Z,41.07
2023-02-12T02:38:19.063Z,38.65
2023-02-12T02:40:49.309Z,34.03
2023-02-12T02:43:18.386Z,39.30
2023-02-12T02:45:53.558Z,39.78
2023-02-12T02:48:25.207Z,34.35
2023-02-12T02:50:56.268Z,40.25
2023-02-12T02:53:28.282Z,39.15
2023-02-12T02:55:57.384Z,34.83
2023-02-12T02:58:27.497Z,40.28
2023-02-12T03:00:54.631Z,39.17
2023-02-12T03:03:25.185Z,41.15
2023-02-12T03:05:54.575Z,32.90
2023-02-12T03:08:27.489Z,38.47
2023-02-12T03:11:00.312Z,38.78
2023-02-12T03:13:33.078Z,38.35
2023-02-12T03:16:05.172Z,35.78
2023-02-12T03:18:36.264Z,33.72
2023-02-12T03:21:05.732Z,38.05
2023-02-12T03:23:36.586Z,42.97
2023-02-12T03:26:10.925Z,39.15
2023-02-12T03:28:38.814Z,36.15
2023-02-12T03:31:15.146Z,42.88
2023-02-12T03:33:42.323Z,41.90
2023-02-12T03:36:18.438Z,48.80
2023-02-12T03:38:48.340Z,40.53
2023-02-12T03:41:21.817Z,37.70
2023-02-12T03:43:51.573Z,44.80
2023-02-12T03:46:26.454Z,36.65
2023-02-12T03:49:11.452Z,41.55
2023-02-12T03:51:40.095Z,38.70
2023-02-12T03:54:08.646Z,39.75
2023-02-12T03:56:39.517Z,38.60
2023-02-12T03:59:06.793Z,37.40
2023-02-12T04:01:35.103Z,42.63
2023-02-12T04:04:06.842Z,37.97
2023-02-12T04:06:34.091Z,39.53
2023-02-12T04:09:09.740Z,39.75
2023-02-12T04:11:46.113Z,39.85
2023-02-12T04:14:31.683Z,43.17
2023-02-12T04:16:59.161Z,42.03
2023-02-12T04:19:44.535Z,39.10
2023-02-12T04:22:14.348Z,40.67
2023-02-12T04:24:50.454Z,38.35
2023-02-12T04:27:26.279Z,34.03
2023-02-12T04:30:04.137Z,38.95
2023-02-12T04:32:31.200Z,35.10
2023-02-12T04:35:01.453Z,38.22
2023-02-12T04:37:31.481Z,37.08
2023-02-12T04:39:59.245Z,40.03
2023-02-12T04:42:26.670Z,38.42
2023-02-12T04:44:54.000Z,58.63
2023-02-12T04:47:21.081Z,39.38
2023-02-12T04:49:48.280Z,43.80
2023-02-12T04:52:15.462Z,47.85
2023-02-12T04:54:42.652Z,41.13
2023-02-12T04:57:09.929Z,43.85
2023-02-12T04:59:37.056Z,40.03
2023-02-12T05:02:04.127Z,37.15
2023-02-12T05:04:31.212Z,49.92
2023-02-12T05:06:58.287Z,46.33
2023-02-12T05:09:25.457Z,37.75
2023-02-12T05:11:52.644Z,41.50
2023-02-12T05:14:19.877Z,36.92
2023-02-12T05:16:47.046Z,43.22
2023-02-12T05:19:14.151Z,39.70
2023-02-12T05:21:41.296Z,40.33
2023-02-12T05:24:08.861Z,45.63
2023-02-12T05:26:36.122Z,43.53
2023-02-12T05:29:03.456Z,47.85
2023-02-12T05:31:30.720Z,49.45
2023-02-12T05:33:57.941Z,52.40
2023-02-12T05:36:25.656Z,48.05
2023-02-12T05:38:53.508Z,51.72
2023-02-12T05:41:21.918Z,56.03
2023-02-12T05:43:49.879Z,59.05
2023-02-12T05:46:17.443Z,54.13
2023-02-12T05:48:44.760Z,52.72
2023-02-12T05:51:13.725Z,56.97
2023-02-12T05:53:41.574Z,59.45
2023-02-12T05:56:13.603Z,58.38
2023-02-12T05:58:41.570Z,56.85
2023-02-12T06:01:13.982Z,54.53
2023-02-12T06:03:42.603Z,49.35
2023-02-12T06:06:10.194Z,53.92
2023-02-12T06:08:37.701Z,44.05
2023-02-12T06:11:06.079Z,47.00
2023-02-12T06:13:33.594Z,53.17
2023-02-12T06:16:00.774Z,53.00
2023-02-12T06:18:28.471Z,49.72
2023-02-12T06:20:55.644Z,51.25
2023-02-12T06:23:23.712Z,52.17
2023-02-12T06:25:51.648Z,49.85
2023-02-12T06:28:18.855Z,52.13
2023-02-12T06:30:46.067Z,55.75
2023-02-12T06:33:13.145Z,60.13
2023-02-12T06:35:40.664Z,57.95
2023-02-12T06:38:07.942Z,56.78
2023-02-12T06:40:35.079Z,61.65
2023-02-12T06:43:02.192Z,58.90
2023-02-12T06:45:29.304Z,50.47
2023-02-12T06:47:56.418Z,54.40
2023-02-12T06:50:24.648Z,59.78
2023-02-12T06:52:55.222Z,55.08
2023-02-12T06:55:22.350Z,56.15
2023-02-12T06:57:49.586Z,53.30
2023-02-12T07:00:16.862Z,51.70
2023-02-12T07:02:44.010Z,53.13
2023-02-12T07:05:11.152Z,59.78
2023-02-12T07:07:38.257Z,50.22
2023-02-12T07:10:05.543Z,50.58
2023-02-12T07:12:34.072Z,51.25
2023-02-12T07:15:01.196Z,50.00
2023-02-12T07:17:30.718Z,60.10
2023-02-12T07:20:01.354Z,55.83
2023-02-12T07:22:29.208Z,51.50
2023-02-12T07:24:56.342Z,55.40
2023-02-12T07:27:23.522Z,53.65
2023-02-12T07:29:50.754Z,49.67
2023-02-12T07:32:17.841Z,52.22
2023-02-12T07:34:45.002Z,56.60
2023-02-12T07:37:12.166Z,60.38
2023-02-12T07:39:39.305Z,55.35
2023-02-12T07:42:08.546Z,55.22
2023-02-12T07:44:36.132Z,61.35
2023-02-12T07:47:04.356Z,58.85
2023-02-12T07:49:31.499Z,56.97
2023-02-12T07:51:58.559Z,60.58
2023-02-12T07:54:25.739Z,67.68
2023-02-12T07:56:52.898Z,66.55
2023-02-12T07:59:21.306Z,67.40
2023-02-12T08:01:50.184Z,66.38
2023-02-12T08:04:19.381Z,65.60
2023-02-12T08:06:47.859Z,72.05
2023-02-12T08:09:17.088Z,65.97
2023-02-12T08:11:44.614Z,69.97
2023-02-12T08:14:12.672Z,68.43
2023-02-12T08:16:43.628Z,69.70
2023-02-12T08:19:19.013Z,66.80
2023-02-12T08:21:47.384Z,67.35
2023-02-12T08:24:14.569Z,70.18
2023-02-12T08:26:41.761Z,64.25
2023-02-12T08:29:10.414Z,62.65
2023-02-12T08:31:45.356Z,76.57
2023-02-12T08:34:19.639Z,63.78
2023-02-12T08:36:47.303Z,76.68
2023-02-12T08:39:14.921Z,71.70
2023-02-12T08:41:44.809Z,70.80
2023-02-12T08:44:12.558Z,77.53
2023-02-12T08:46:40.931Z,67.72
2023-02-12T08:49:10.154Z,69.60
2023-02-12T08:51:39.435Z,63.78
2023-02-12T08:54:07.415Z,68.38
2023-02-12T08:56:35.897Z,63.03
2023-02-12T08:59:04.658Z,69.10
2023-02-12T09:01:33.321Z,54.08
2023-02-12T09:04:00.577Z,59.72
2023-02-12T09:06:28.185Z,52.55
2023-02-12T09:08:55.572Z,60.17
2023-02-12T09:11:26.543Z,60.00
2023-02-12T09:13:53.832Z,56.70
2023-02-12T09:16:21.072Z,55.97
2023-02-12T09:18:48.195Z,52.08
2023-02-12T09:21:16.722Z,56.17
2023-02-12T09:23:44.732Z,49.03
2023-02-12T09:26:13.297Z,50.22
2023-02-12T09:28:40.545Z,46.90
2023-02-12T09:31:07.836Z,53.78
2023-02-12T09:33:35.175Z,46.10
2023-02-12T09:36:03.407Z,47.20
2023-02-12T09:38:30.722Z,42.50
2023-02-12T09:41:05.245Z,46.65
2023-02-12T09:43:37.563Z,49.20
2023-02-12T09:46:07.352Z,48.00
2023-02-12T09:48:40.115Z,46.75
2023-02-12T09:51:09.081Z,46.00
2023-02-12T09:53:38.566Z,43.10
2023-02-12T09:56:15.637Z,39.28
2023-02-12T09:58:45.189Z,43.58
2023-02-12T10:01:16.972Z,41.85
2023-02-12T10:03:44.938Z,45.88
2023-02-12T10:06:15.201Z,31.83
2023-02-12T10:08:48.163Z,39.67
2023-02-12T10:11:18.108Z,34.28
2023-02-12T10:13:45.434Z,34.33
2023-02-12T10:16:24.512Z,29.25
2023-02-12T10:18:54.706Z,34.65
2023-02-12T10:21:21.927Z,33.13
2023-02-12T10:23:58.903Z,33.30
2023-02-12T10:26:52.052Z,34.35
2023-02-12T10:29:26.610Z,32.33
2023-02-12T10:32:13.991Z,32.78
2023-02-12T10:34:42.084Z,30.55
2023-02-12T10:37:15.483Z,28.67
2023-02-12T10:39:45.854Z,33.45
2023-02-12T10:42:23.055Z,32.10
2023-02-12T10:44:50.149Z,28.60
2023-02-12T10:47:24.608Z,29.52
2023-02-12T10:49:56.389Z,30.52
2023-02-12T10:52:38.775Z,26.73
2023-02-12T10:55:24.259Z,27.90
2023-02-12T10:57:51.532Z,21.25
2023-02-12T11:00:21.977Z,25.75
2023-02-12T11:03:09.446Z,26.02
2023-02-12T11:05:37.191Z,30.65
2023-02-12T11:08:04.727Z,26.67
2023-02-12T11:10:33.486Z,30.38
2023-02-12T11:13:01.187Z,25.40
2023-02-12T11:15:31.306Z,26.33
2023-02-12T11:18:00.908Z,24.45
2023-02-12T11:20:29.527Z,24.15
2023-02-12T11:23:00.223Z,24.75
2023-02-12T11:25:33.497Z,26.77
2023-02-12T11:28:02.276Z,26.30
2023-02-12T11:30:29.455Z,22.55
2023-02-12T11:33:15.009Z,30.15
2023-02-12T11:35:49.661Z,25.48
2023-02-12T11:38:37.350Z,25.90
2023-02-12T11:41:10.764Z,30.35
2023-02-12T11:43:39.612Z,24.95
2023-02-12T11:46:08.587Z,24.33
2023-02-12T11:48:38.966Z,26.70
2023-02-12T11:51:09.096Z,25.52
2023-02-12T11:53:42.460Z,24.48
2023-02-12T11:56:11.651Z,25.13
2023-02-12T11:58:42.557Z,26.35
2023-02-12T12:01:16.569Z,28.88
2023-02-12T12:04:04.316Z,27.67
2023-02-12T12:06:42.131Z,27.77
2023-02-12T12:09:22.501Z,25.95
2023-02-12T12:12:03.217Z,23.70
2023-02-12T12:14:31.874Z,26.80
2023-02-12T12:17:17.622Z,24.40
2023-02-12T12:19:53.972Z,27.90
2023-02-12T12:22:36.982Z,31.08
2023-02-12T12:25:17.078Z,26.70
2023-02-12T12:28:09.995Z,31.00
2023-02-12T12:30:39.915Z,24.23
2023-02-12T12:33:14.024Z,27.35
2023-02-12T12:35:59.817Z,25.55
2023-02-12T12:38:47.193Z,27.90
2023-02-12T12:41:20.297Z,27.08
2023-02-12T12:43:52.955Z,24.38
2023-02-12T12:49:22.672Z,24.88
2023-02-12T12:52:08.492Z,22.15
2023-02-12T12:54:54.511Z,23.23
2023-02-12T12:57:29.207Z,23.73
2023-02-12T13:00:09.435Z,28.75
2023-02-12T13:02:38.140Z,24.00
2023-02-12T13:05:05.217Z,25.30
2023-02-12T13:07:39.067Z,27.10
2023-02-12T13:10:08.871Z,27.90
2023-02-12T13:12:45.036Z,24.65
2023-02-12T13:15:19.880Z,25.75
2023-02-12T13:17:56.163Z,29.73
2023-02-12T13:20:27.579Z,26.58
2023-02-12T13:22:54.648Z,25.00
2023-02-12T13:25:30.799Z,25.48
2023-02-12T13:27:59.056Z,28.15
2023-02-12T13:30:29.990Z,24.73
2023-02-12T13:32:57.083Z,26.88
2023-02-12T13:35:25.699Z,27.70
2023-02-12T13:37:54.075Z,30.40
2023-02-12T13:40:21.164Z,25.27
2023-02-12T13:42:53.313Z,27.45
2023-02-12T13:45:39.406Z,24.90
2023-02-12T13:48:15.972Z,25.63
2023-02-12T13:50:48.359Z,26.17
2023-02-12T13:53:34.334Z,25.02
2023-02-12T13:56:14.523Z,26.80
2023-02-12T13:58:47.872Z,25.33
2023-02-12T14:01:35.389Z,21.60
2023-02-12T14:04:34.908Z,22.45
2023-02-12T14:07:02.000Z,19.48
2023-02-12T14:09:46.377Z,27.20
2023-02-12T14:12:25.333Z,24.88
2023-02-12T14:14:55.562Z,24.60
2023-02-12T14:17:31.775Z,26.60
2023-02-12T14:20:17.462Z,24.17
2023-02-12T14:22:46.257Z,22.50
2023-02-12T14:25:25.436Z,27.17
2023-02-12T14:28:01.678Z,26.63
2023-02-12T14:30:31.341Z,21.95
2023-02-12T14:33:00.817Z,21.10
2023-02-12T14:35:32.041Z,23.00
2023-02-12T14:38:01.964Z,23.25
2023-02-12T14:40:32.185Z,21.00
2023-02-12T14:42:59.776Z,24.25
2023-02-12T14:45:31.511Z,21.55
2023-02-12T14:47:58.880Z,20.77
2023-02-12T14:50:32.408Z,25.05
2023-02-12T14:53:05.121Z,23.77
2023-02-12T14:55:36.742Z,25.13
2023-02-12T14:58:15.297Z,24.07
2023-02-12T15:00:45.802Z,21.63
2023-02-12T15:03:15.710Z,23.17
2023-02-12T15:06:01.884Z,21.95
2023-02-12T15:08:41.241Z,24.70
2023-02-12T15:11:21.123Z,20.95
2023-02-12T15:13:56.354Z,22.33
2023-02-12T15:16:27.964Z,26.83
2023-02-12T15:18:58.923Z,24.15
2023-02-12T15:21:27.680Z,23.20
2023-02-12T15:24:02.427Z,22.35
2023-02-12T15:26:30.593Z,27.63
2023-02-12T15:28:57.756Z,23.05
2023-02-12T15:31:30.008Z,23.80
2023-02-12T15:33:58.179Z,26.35
2023-02-12T15:36:26.822Z,21.75
2023-02-12T15:39:01.646Z,22.20
2023-02-12T15:41:34.736Z,21.83
2023-02-12T15:44:03.051Z,21.88
2023-02-12T15:46:30.288Z,19.63
2023-02-12T15:48:57.930Z,21.38
2023-02-12T15:51:37.173Z,21.17
2023-02-12T15:54:06.323Z,25.63
2023-02-12T15:56:34.816Z,20.48
2023-02-12T15:59:02.491Z,21.50
2023-02-12T16:01:34.990Z,18.33
2023-02-12T16:04:03.288Z,20.92
2023-02-12T16:06:32.314Z,25.35
2023-02-12T16:09:02.574Z,20.00
2023-02-12T16:11:29.925Z,21.60
2023-02-12T16:14:08.904Z,20.20
2023-02-12T16:16:46.490Z,22.42
2023-02-12T16:19:21.534Z,19.92
2023-02-12T16:21:50.592Z,21.98
2023-02-12T16:24:30.158Z,20.80
2023-02-12T16:26:58.662Z,23.20
2023-02-12T16:29:27.082Z,25.08
2023-02-12T16:31:55.875Z,17.17
2023-02-12T16:34:49.208Z,19.75
2023-02-12T16:37:34.931Z,23.17
2023-02-12T16:40:02.046Z,21.60
2023-02-12T16:42:29.536Z,18.48
2023-02-12T16:44:56.793Z,21.38
2023-02-12T16:47:24.816Z,22.58
2023-02-12T16:49:56.020Z,18.13
2023-02-12T16:52:34.243Z,24.83
2023-02-12T16:55:01.651Z,20.55
2023-02-12T16:57:28.838Z,21.50
2023-02-12T16:59:55.978Z,21.25
2023-02-12T17:02:23.117Z,23.17
2023-02-12T17:04:50.265Z,22.52
2023-02-12T17:07:24.406Z,24.70
2023-02-12T17:09:51.642Z,19.35
2023-02-12T17:12:19.043Z,22.23
2023-02-12T17:14:46.099Z,19.20
2023-02-12T17:17:13.280Z,21.98
2023-02-12T17:19:40.443Z,25.70
2023-02-12T17:22:08.935Z,19.67
2023-02-12T17:24:36.117Z,18.88
2023-02-12T17:27:03.686Z,25.92
2023-02-12T17:29:31.120Z,21.75
2023-02-12T17:31:58.582Z,19.83
2023-02-12T17:34:25.755Z,21.98
2023-02-12T17:36:53.382Z,23.25
2023-02-12T17:39:20.657Z,23.52
2023-02-12T17:41:48.103Z,21.65
2023-02-12T17:44:15.586Z,20.92
2023-02-12T17:46:42.886Z,19.25
2023-02-12T17:49:10.339Z,20.42
2023-02-12T17:51:37.740Z,20.48
2023-02-12T17:54:05.109Z,20.58
2023-02-12T17:56:32.361Z,20.15
2023-02-12T17:58:59.585Z,20.52
2023-02-12T18:01:26.863Z,23.13
2023-02-12T18:03:55.829Z,23.13
2023-02-12T18:06:27.109Z,19.98
2023-02-12T18:08:55.260Z,20.75
2023-02-12T18:11:22.412Z,22.40
2023-02-12T18:13:52.442Z,19.83
2023-02-12T18:16:19.828Z,23.33
2023-02-12T18:18:47.016Z,24.15
2023-02-12T18:21:15.752Z,20.17
2023-02-12T18:23:42.846Z,25.98
2023-02-12T18:26:11.428Z,21.45
2023-02-12T18:28:38.850Z,25.55
2023-02-12T18:31:06.888Z,23.88
2023-02-12T18:33:34.598Z,22.05
2023-02-12T18:36:03.251Z,23.25
2023-02-12T18:38:30.839Z,20.17
2023-02-12T18:41:00.180Z,22.40
2023-02-12T18:43:28.039Z,28.63
2023-02-12T18:45:55.301Z,25.80
2023-02-12T18:48:23.121Z,24.17
2023-02-12T18:50:51.756Z,20.80
2023-02-12T18:53:19.124Z,28.58
2023-02-12T18:55:46.413Z,30.92
2023-02-12T18:58:13.505Z,27.58
2023-02-12T19:00:40.782Z,25.27
2023-02-12T19:03:08.004Z,31.48
2023-02-12T19:05:35.210Z,27.92
2023-02-12T19:08:03.077Z,26.73
2023-02-12T19:10:30.443Z,30.45
2023-02-12T19:12:57.648Z,30.45
2023-02-12T19:15:24.783Z,26.48
2023-02-12T19:17:52.002Z,25.05
2023-02-12T19:20:19.353Z,29.27
2023-02-12T19:22:47.261Z,26.55
2023-02-12T19:25:14.515Z,25.92
2023-02-12T19:27:41.868Z,25.80
2023-02-12T19:30:09.304Z,24.27
2023-02-12T19:32:38.024Z,28.98
2023-02-12T19:35:05.674Z,22.13
2023-02-12T19:37:32.885Z,24.65
2023-02-12T19:40:00.183Z,22.98
2023-02-12T19:42:27.421Z,26.42
2023-02-12T19:44:54.696Z,27.45
2023-02-12T19:47:21.962Z,22.38
2023-02-12T19:49:49.122Z,19.42
2023-02-12T19:52:16.398Z,21.00
2023-02-12T19:54:45.097Z,22.95
2023-02-12T19:57:13.522Z,22.60
2023-02-12T19:59:42.814Z,22.98
2023-02-12T20:02:10.759Z,25.52
2023-02-12T20:04:38.027Z,27.88
2023-02-12T20:07:05.184Z,25.23
2023-02-12T20:09:32.336Z,26.20
2023-02-12T20:11:59.695Z,22.08
2023-02-12T20:14:26.966Z,25.95
2023-02-12T20:16:55.573Z,27.92
2023-02-12T20:19:26.008Z,27.10
2023-02-12T20:21:55.626Z,22.42
2023-02-12T20:24:29.947Z,22.65
2023-02-12T20:26:57.738Z,25.08
2023-02-12T20:29:25.316Z,23.35
2023-02-12T20:31:52.634Z,23.77
2023-02-12T20:34:20.591Z,20.25
2023-02-12T20:36:48.129Z,23.27
2023-02-12T20:39:21.103Z,25.42
2023-02-12T20:41:48.545Z,25.83
2023-02-12T20:44:17.134Z,27.83
2023-02-12T20:46:47.785Z,22.38
2023-02-12T20:49:15.749Z,21.73
2023-02-12T20:51:43.303Z,23.98
2023-02-12T20:54:10.509Z,20.98
2023-02-12T20:56:38.136Z,20.35
2023-02-12T20:59:06.616Z,25.65
2023-02-12T21:01:35.288Z,20.58
2023-02-12T21:04:07.038Z,23.60
2023-02-12T21:06:34.498Z,27.13
2023-02-12T21:09:01.752Z,24.60
2023-02-12T21:11:29.554Z,25.67
2023-02-12T21:14:12.478Z,26.90
2023-02-12T21:16:45.414Z,27.30
2023-02-12T21:19:14.021Z,23.83
2023-02-12T21:21:42.146Z,25.58
2023-02-12T21:24:10.615Z,26.25
2023-02-12T21:26:38.327Z,23.02
2023-02-12T21:29:06.266Z,22.90
2023-02-12T21:31:38.044Z,21.35
2023-02-12T21:34:06.217Z,22.83
2023-02-12T21:36:35.480Z,22.63
2023-02-12T21:39:02.739Z,22.35
2023-02-12T21:41:30.904Z,25.73
2023-02-12T21:44:02.241Z,20.83
2023-02-12T21:46:29.781Z,24.02
2023-02-12T21:48:57.087Z,24.35
2023-02-12T21:51:24.290Z,25.98
2023-02-12T21:53:52.310Z,23.77
2023-02-12T21:56:20.025Z,23.10
2023-02-12T21:58:47.698Z,23.35
2023-02-12T22:01:16.363Z,24.00
2023-02-12T22:03:46.515Z,24.45
2023-02-12T22:06:14.313Z,22.42
2023-02-12T22:08:41.424Z,23.95
2023-02-12T22:11:09.530Z,21.17
2023-02-12T22:13:37.542Z,22.88
2023-02-12T22:16:11.758Z,24.13
2023-02-12T22:18:39.400Z,21.15
2023-02-12T22:21:07.724Z,21.40
2023-02-12T22:23:35.829Z,20.25
2023-02-12T22:26:10.845Z,23.10
2023-02-12T22:28:42.230Z,21.95
2023-02-12T22:31:10.264Z,22.08
2023-02-12T22:33:37.481Z,21.85
2023-02-12T22:36:05.591Z,24.25
2023-02-12T22:38:36.384Z,21.60
2023-02-12T22:41:03.979Z,23.35
2023-02-12T22:43:31.792Z,20.90
2023-02-12T22:45:59.119Z,26.20
2023-02-12T22:48:28.320Z,22.95
2023-02-12T22:50:56.474Z,21.80
2023-02-12T22:53:24.229Z,23.30
2023-02-12T22:55:51.475Z,23.65
2023-02-12T22:58:18.540Z,25.65
2023-02-12T23:00:45.833Z,28.88
2023-02-12T23:03:13.023Z,26.08
2023-02-12T23:05:40.288Z,23.73
2023-02-12T23:08:07.774Z,23.00
2023-02-12T23:10:34.835Z,25.48
2023-02-12T23:13:02.727Z,22.23
2023-02-12T23:15:30.551Z,26.13
2023-02-12T23:17:57.886Z,22.98
2023-02-12T23:20:25.019Z,22.38
2023-02-12T23:22:52.163Z,21.00
2023-02-12T23:25:19.358Z,23.83
2023-02-12T23:27:46.525Z,19.85
2023-02-12T23:30:13.914Z,22.92
2023-02-12T23:32:41.070Z,23.10
2023-02-12T23:35:08.336Z,24.88
2023-02-12T23:37:36.667Z,23.40
2023-02-12T23:40:03.766Z,25.52
2023-02-12T23:42:30.876Z,21.77
2023-02-12T23:44:58.000Z,22.90
2023-02-12T23:47:25.217Z,23.02
2023-02-12T23:49:52.324Z,26.33
2023-02-12T23:52:38.148Z,25.30
2023-02-12T23:55:05.412Z,29.70
2023-02-12T23:57:32.515Z,22.42
2023-02-12T23:59:59.648Z,24.75
